OISY  Yasouj Airport

Add Bookmark

Iran

Status
Operational
Latitude Longitude
30° 42' 1" N 51° 32' 42" E
30.700500 51.545101
Local (DST + 5) UTC (GMT + 4)
Sep 3, 2014 01:46 Sep 2, 2014 21:16
Sunrise-Sunset Local UTC
Begin Civil Twilight 06:15 01:45
Sunrise 06:40 02:10
Sunset 07:26 14:56
End Civil Twilight 07:50 15:20

Current Weather

METAR Observed VFR
OISY 022100Z 29004KT CAVOK 20/M04 Q1018 Tue, Sep 2, 2014 @ 21:00 UTC
(16 Minutes ago)
Visual Flight Rules
Wind Visibility Clouds Conditions
290° at 4 knots (7 kph) 10 km or more
  • Clear skies
  • No significant weather
Temperatures Readings Precipitation
Current Temp 20°C (68°F)
Dewpoint -4°C (25°F)
Humidity 20%
Altimeter 30.06"Hg
Sea Level Pressure 1018mb
Field Elevation 5941.6'
None Recorded

Additional weather within a 92.6km radius of OISY

Map ICAO Location
OIAH 79.6km W (240°)

24 Hour Weather History

Loading
-

24 Hour Weather Graphs

Loading
-

CheckWX.com is intended as a tool to help pilots better visualize weather data. It is not intended as a substitute for an official weather briefing obtained from a Flight Service Station. CheckWX.com does not meet the FAA requirements for an official pre-flight weather briefing. Therefore, it's important that pilots still call and obtain an official FSS pre-flight weather briefing.